Time;durP1;ratioP1;P1;durP2;ratioP2;P2;SDS_P1;SDS_P2;PMS_P1;PMS_P2;Temp;Humidity;BMP_temperature;BMP_pressure;BME280_temperature;BME280_humidity;BME280_pressure;Samples;Min_cycle;Max_cycle;Signal;HPM_P1;HPM_P2
2022/05/05 00:00:45;;;;;;;2.95;2.25;;;10.60;52.90;;;;;;5073739;28;20096;-59
2022/05/05 00:03:10;;;;;;;2.47;2.17;;;10.50;52.80;;;;;;5073967;28;20032;-59
2022/05/05 00:05:36;;;;;;;2.30;2.00;;;10.50;53.00;;;;;;5082193;28;20024;-58
2022/05/05 00:08:02;;;;;;;2.63;2.08;;;10.50;52.90;;;;;;5089274;28;20020;-59
2022/05/05 00:15:55;;;;;;;4.80;2.40;;;10.50;53.40;;;;;;5089039;28;20027;-59
2022/05/05 00:18:21;;;;;;;4.55;2.20;;;10.40;53.20;;;;;;5080393;28;20044;-59
2022/05/05 00:20:46;;;;;;;5.57;2.30;;;10.40;53.30;;;;;;5073338;28;20016;-59
2022/05/05 00:23:12;;;;;;;2.00;1.90;;;10.40;53.60;;;;;;5078134;28;20116;-59
2022/05/05 00:25:38;;;;;;;2.50;2.30;;;10.40;53.60;;;;;;5092021;28;20020;-59
2022/05/05 00:28:04;;;;;;;2.47;2.13;;;10.40;53.50;;;;;;5082586;28;20043;-59
2022/05/05 00:30:29;;;;;;;2.85;2.58;;;10.30;53.60;;;;;;5087299;28;20074;-59
2022/05/05 00:32:55;;;;;;;2.35;2.15;;;10.30;53.50;;;;;;5073126;28;20029;-59
2022/05/05 00:35:20;;;;;;;2.45;2.20;;;10.30;53.70;;;;;;5090870;28;20444;-59
2022/05/05 00:37:46;;;;;;;2.22;2.03;;;10.20;53.60;;;;;;5087671;28;20419;-59
2022/05/05 00:40:12;;;;;;;2.20;2.00;;;10.20;53.80;;;;;;5086883;28;20032;-59
2022/05/05 00:42:38;;;;;;;2.38;2.10;;;10.20;54.10;;;;;;5092469;28;20028;-59
2022/05/05 00:45:04;;;;;;;2.30;2.10;;;10.20;54.00;;;;;;5086538;28;20385;-59
2022/05/05 00:47:30;;;;;;;2.35;2.05;;;10.20;54.00;;;;;;5093269;28;20390;-59
2022/05/05 00:49:59;;;;;;;2.30;2.00;;;10.10;54.30;;;;;;5092155;28;20028;-59
2022/05/05 00:52:27;;;;;;;3.22;2.20;;;10.10;54.50;;;;;;5088299;28;20411;-59
2022/05/05 00:54:56;;;;;;;2.40;2.20;;;10.10;54.30;;;;;;5084682;28;20093;-59
2022/05/05 00:57:23;;;;;;;4.10;2.20;;;10.10;54.00;;;;;;5091210;28;20020;-59
2022/05/05 00:59:50;;;;;;;3.42;2.20;;;10.10;54.00;;;;;;5092176;28;20483;-59
2022/05/05 01:02:16;;;;;;;3.17;2.10;;;10.00;54.00;;;;;;5086314;28;20044;-58
2022/05/05 01:04:43;;;;;;;2.40;2.20;;;10.00;54.10;;;;;;5080104;28;20599;-59
2022/05/05 01:07:09;;;;;;;2.92;2.42;;;10.00;54.20;;;;;;5091637;28;20552;-59
2022/05/05 01:09:35;;;;;;;3.25;2.10;;;9.90;54.30;;;;;;5091871;28;20028;-59
2022/05/05 01:12:02;;;;;;;2.13;1.92;;;9.90;54.40;;;;;;5073975;28;20036;-59
2022/05/05 01:14:29;;;;;;;2.08;1.88;;;9.90;54.50;;;;;;5073040;28;20109;-59
2022/05/05 01:16:55;;;;;;;3.38;2.10;;;9.90;54.60;;;;;;5089993;28;20029;-59
2022/05/05 01:19:20;;;;;;;2.20;2.00;;;9.80;54.70;;;;;;5090950;28;20115;-59
2022/05/05 01:21:55;;;;;;;2.47;1.77;;;9.80;54.90;;;;;;5073234;28;20474;-59
2022/05/05 01:29:54;;;;;;;2.17;1.98;;;9.70;54.50;;;;;;5072284;28;20038;-59
2022/05/05 01:32:20;;;;;;;2.22;2.03;;;9.70;54.50;;;;;;5076385;28;20035;-59
2022/05/05 01:34:45;;;;;;;2.72;2.15;;;9.70;54.80;;;;;;5085201;28;20408;-59
2022/05/05 01:37:11;;;;;;;2.63;2.17;;;9.60;55.20;;;;;;5084296;28;20017;-59
2022/05/05 01:39:36;;;;;;;4.07;2.33;;;9.60;55.10;;;;;;5072029;28;20017;-59
2022/05/05 01:42:02;;;;;;;2.15;1.95;;;9.60;55.30;;;;;;5071812;28;20027;-59
2022/05/05 01:44:28;;;;;;;2.90;2.45;;;9.50;54.90;;;;;;5071950;28;20032;-59
2022/05/05 01:46:54;;;;;;;2.55;2.35;;;9.50;55.20;;;;;;5078655;28;20585;-60
2022/05/05 01:49:19;;;;;;;2.50;2.30;;;9.40;55.10;;;;;;5085764;28;20028;-59
2022/05/05 01:51:45;;;;;;;2.40;2.20;;;9.40;55.30;;;;;;5087426;28;20073;-59
2022/05/05 01:54:11;;;;;;;3.08;2.38;;;9.40;55.40;;;;;;5092114;28;20055;-59
2022/05/05 01:56:37;;;;;;;4.05;2.17;;;9.30;55.60;;;;;;5078266;28;20063;-59
2022/05/05 01:59:03;;;;;;;2.20;2.00;;;9.30;55.80;;;;;;5076324;28;20590;-59
2022/05/05 02:01:29;;;;;;;2.50;2.30;;;9.30;55.80;;;;;;5080603;28;20379;-59
2022/05/05 02:03:54;;;;;;;3.67;2.28;;;9.30;55.70;;;;;;5083854;28;20029;-59
2022/05/05 02:06:20;;;;;;;2.35;2.13;;;9.20;55.90;;;;;;5078007;28;20036;-58
2022/05/05 02:08:45;;;;;;;2.40;2.17;;;9.20;55.90;;;;;;5071193;28;20036;-59
2022/05/05 02:11:11;;;;;;;2.30;2.10;;;9.10;55.60;;;;;;5086869;28;20032;-58
2022/05/05 02:13:37;;;;;;;2.42;2.20;;;9.10;55.70;;;;;;5075309;28;20025;-58
2022/05/05 02:16:04;;;;;;;2.25;2.13;;;9.00;55.90;;;;;;5079854;28;20128;-58
2022/05/05 02:18:31;;;;;;;2.90;2.22;;;9.00;55.80;;;;;;5076157;28;20044;-57
2022/05/05 02:20:57;;;;;;;2.38;2.10;;;9.00;55.80;;;;;;5078413;28;20418;-58
2022/05/05 02:23:23;;;;;;;2.45;2.25;;;8.90;56.00;;;;;;5086398;28;20039;-58
2022/05/05 02:25:48;;;;;;;3.53;2.10;;;8.90;55.90;;;;;;5076915;28;20107;-58
2022/05/05 02:28:14;;;;;;;2.92;2.60;;;8.90;56.00;;;;;;5082330;28;20067;-58
2022/05/05 02:30:40;;;;;;;3.65;2.55;;;8.90;56.00;;;;;;5095095;28;20067;-57
2022/05/05 02:33:06;;;;;;;6.57;2.65;;;8.90;56.00;;;;;;5082507;28;20024;-56
2022/05/05 02:35:31;;;;;;;3.67;2.60;;;8.90;56.30;;;;;;5075308;28;20020;-58
2022/05/05 02:40:41;;;;;;;2.97;2.22;;;8.90;56.10;;;;;;5083395;28;20085;-56
2022/05/05 02:43:08;;;;;;;2.30;2.10;;;8.90;55.90;;;;;;5084186;28;20472;-58
2022/05/05 02:45:34;;;;;;;2.88;2.33;;;8.90;56.10;;;;;;5088662;28;20060;-57
2022/05/05 02:48:00;;;;;;;3.30;2.50;;;8.80;56.40;;;;;;5075354;28;20086;-58
2022/05/05 02:50:26;;;;;;;3.00;2.33;;;8.80;56.20;;;;;;5094385;28;20475;-58
2022/05/05 02:52:53;;;;;;;2.72;2.45;;;8.90;56.30;;;;;;5094855;28;20024;-57
2022/05/05 02:55:18;;;;;;;2.50;2.30;;;8.90;56.10;;;;;;5087510;28;20414;-58
2022/05/05 02:57:44;;;;;;;3.28;2.40;;;8.90;56.50;;;;;;5082465;28;20080;-58
2022/05/05 03:00:11;;;;;;;2.47;2.22;;;8.90;56.30;;;;;;5095030;28;20024;-58
2022/05/05 03:02:37;;;;;;;3.55;2.30;;;8.90;56.30;;;;;;5093653;28;20020;-58
2022/05/05 03:05:03;;;;;;;2.00;1.90;;;8.90;56.60;;;;;;5095449;28;20040;-56
2022/05/05 03:07:29;;;;;;;2.42;2.22;;;9.00;56.60;;;;;;5095066;28;20384;-58
2022/05/05 03:09:55;;;;;;;2.47;2.17;;;9.00;56.60;;;;;;5095340;28;20028;-57
2022/05/05 03:12:21;;;;;;;4.65;2.45;;;9.00;56.70;;;;;;5094423;28;20031;-58
2022/05/05 03:14:47;;;;;;;2.55;2.33;;;9.10;56.50;;;;;;5082815;28;20040;-58
2022/05/05 03:17:14;;;;;;;2.67;2.28;;;9.10;56.50;;;;;;5093439;28;20115;-57
2022/05/05 03:19:41;;;;;;;2.42;2.22;;;9.20;56.70;;;;;;5086557;28;20025;-57
2022/05/05 03:22:07;;;;;;;2.42;2.20;;;9.30;56.80;;;;;;5074734;28;20233;-58
2022/05/05 03:24:33;;;;;;;2.15;2.00;;;9.40;56.60;;;;;;5076216;28;20043;-58
2022/05/05 03:27:00;;;;;;;2.45;2.20;;;9.50;56.40;;;;;;5079054;28;20035;-58
2022/05/05 03:29:26;;;;;;;2.13;2.00;;;9.60;55.90;;;;;;5074739;28;20373;-58
2022/05/05 03:31:51;;;;;;;2.47;2.10;;;9.70;56.00;;;;;;5084894;28;20388;-57
2022/05/05 03:34:17;;;;;;;2.95;2.55;;;9.80;55.90;;;;;;5087025;28;20028;-58
2022/05/05 03:36:43;;;;;;;2.45;2.20;;;9.90;55.60;;;;;;5092453;28;20024;-58
2022/05/05 03:39:08;;;;;;;2.63;2.13;;;9.90;55.80;;;;;;5094415;28;20383;-58
2022/05/05 03:41:34;;;;;;;2.30;2.15;;;10.10;56.50;;;;;;5094565;28;20024;-58
2022/05/05 03:44:00;;;;;;;3.83;2.17;;;10.30;56.30;;;;;;5088367;28;20461;-58
2022/05/05 03:46:26;;;;;;;2.75;1.90;;;10.50;56.00;;;;;;5074400;28;20056;-58
2022/05/05 03:48:52;;;;;;;2.50;2.30;;;10.70;55.40;;;;;;5091011;28;20035;-57
2022/05/05 03:51:18;;;;;;;2.22;2.00;;;10.90;55.00;;;;;;5093841;28;20032;-58
2022/05/05 03:53:43;;;;;;;2.40;1.92;;;11.10;55.00;;;;;;5089322;28;20029;-58
2022/05/05 03:56:09;;;;;;;2.05;1.88;;;11.40;54.60;;;;;;5081616;28;20095;-58
2022/05/05 03:58:35;;;;;;;2.38;2.17;;;11.70;54.60;;;;;;5073869;28;20016;-58
2022/05/05 04:01:01;;;;;;;2.58;1.73;;;12.10;54.60;;;;;;5073967;28;20380;-57
2022/05/05 04:03:33;;;;;;;3.45;1.73;;;12.70;53.90;;;;;;5079967;28;20020;-58
2022/05/05 04:06:02;;;;;;;2.35;2.10;;;13.20;52.90;;;;;;5087677;28;20035;-58
2022/05/05 04:08:28;;;;;;;2.53;1.90;;;13.90;51.90;;;;;;5087818;28;20031;-57
2022/05/05 04:10:54;;;;;;;2.05;1.85;;;14.70;51.00;;;;;;5074073;28;20035;-58
2022/05/05 04:13:20;;;;;;;1.73;1.63;;;15.30;49.30;;;;;;5087719;28;20024;-58
2022/05/05 04:15:46;;;;;;;2.08;1.95;;;15.80;48.90;;;;;;5073820;28;20165;-58
2022/05/05 04:18:12;;;;;;;1.77;1.67;;;16.40;48.00;;;;;;5088192;28;20040;-58
2022/05/05 04:20:38;;;;;;;2.42;1.90;;;16.80;47.10;;;;;;5085868;28;20479;-58
2022/05/05 04:23:04;;;;;;;2.05;1.77;;;17.30;46.70;;;;;;5088327;28;20390;-57
2022/05/05 04:25:30;;;;;;;16.58;3.03;;;17.40;45.70;;;;;;5087707;28;20035;-58
2022/05/05 04:27:56;;;;;;;2.15;1.58;;;17.40;45.20;;;;;;5088321;28;20054;-58
2022/05/05 04:30:21;;;;;;;2.03;1.83;;;17.30;45.30;;;;;;5083025;28;20028;-57
2022/05/05 04:32:47;;;;;;;2.25;1.67;;;17.40;45.20;;;;;;5078630;28;20033;-59
2022/05/05 04:35:15;;;;;;;3.17;1.98;;;17.60;44.80;;;;;;5089217;28;20392;-58
2022/05/05 04:37:41;;;;;;;1.65;1.55;;;17.80;44.50;;;;;;5082044;28;20020;-57
2022/05/05 04:40:08;;;;;;;4.45;2.40;;;18.00;44.10;;;;;;5085950;28;20032;-58
2022/05/05 04:42:34;;;;;;;3.10;1.77;;;18.20;43.90;;;;;;5084269;28;20020;-58
2022/05/05 04:45:00;;;;;;;1.70;1.38;;;18.60;44.20;;;;;;5087989;28;20034;-57
2022/05/05 04:47:26;;;;;;;1.38;1.27;;;19.20;43.90;;;;;;5092907;28;20024;-58
2022/05/05 04:49:53;;;;;;;2.10;1.70;;;19.90;43.30;;;;;;5103800;28;20384;-58
2022/05/05 04:52:19;;;;;;;1.92;1.45;;;20.40;42.50;;;;;;5085717;28;20141;-58
2022/05/05 04:54:44;;;;;;;2.60;1.73;;;20.90;41.50;;;;;;5085866;28;20031;-56
2022/05/05 04:57:10;;;;;;;2.10;1.90;;;21.10;40.90;;;;;;5083714;28;20027;-58
2022/05/05 04:59:36;;;;;;;1.55;1.45;;;21.20;41.40;;;;;;5082135;28;20043;-58
2022/05/05 05:02:02;;;;;;;1.05;1.02;;;21.40;40.50;;;;;;5084057;28;20527;-58
2022/05/05 05:04:28;;;;;;;1.65;1.55;;;21.60;40.10;;;;;;5089480;28;20028;-57
2022/05/05 05:06:53;;;;;;;1.67;1.42;;;21.70;39.80;;;;;;5087793;28;20035;-58
2022/05/05 05:09:19;;;;;;;2.17;1.10;;;21.50;39.40;;;;;;5090033;28;20028;-57
2022/05/05 05:11:45;;;;;;;2.03;1.60;;;21.40;39.50;;;;;;5086430;28;20517;-58
2022/05/05 05:14:10;;;;;;;1.50;1.38;;;21.00;39.30;;;;;;5083508;28;20062;-57
2022/05/05 05:16:36;;;;;;;1.85;1.70;;;20.70;39.40;;;;;;5087296;28;20052;-58
2022/05/05 05:19:03;;;;;;;1.45;1.35;;;20.30;39.70;;;;;;5089183;28;20538;-58
2022/05/05 05:21:29;;;;;;;1.33;1.20;;;20.00;39.80;;;;;;5087502;28;20027;-58
2022/05/05 05:23:55;;;;;;;2.28;2.00;;;19.80;39.70;;;;;;5087427;28;20028;-58
2022/05/05 05:26:20;;;;;;;1.90;1.70;;;19.60;39.30;;;;;;5082333;28;20020;-57
2022/05/05 05:28:46;;;;;;;1.52;1.42;;;19.30;39.30;;;;;;5090724;28;20039;-58
2022/05/05 05:31:12;;;;;;;1.52;1.42;;;19.00;39.50;;;;;;5084693;28;20035;-58
2022/05/05 05:33:37;;;;;;;3.35;1.88;;;18.60;39.70;;;;;;5088561;28;20035;-57
2022/05/05 05:36:03;;;;;;;2.30;1.90;;;18.10;40.20;;;;;;5084532;28;20121;-58
2022/05/05 05:38:29;;;;;;;3.45;2.00;;;17.70;40.90;;;;;;5085707;28;20020;-58
2022/05/05 05:40:54;;;;;;;1.77;1.67;;;17.30;41.30;;;;;;5089036;28;20017;-56
2022/05/05 05:43:21;;;;;;;1.88;1.52;;;16.90;41.70;;;;;;5086157;28;20024;-57
2022/05/05 05:45:46;;;;;;;1.60;1.50;;;16.50;42.20;;;;;;5083044;28;20036;-58
2022/05/05 05:48:12;;;;;;;2.08;1.88;;;16.20;42.60;;;;;;5083467;28;20035;-58
2022/05/05 05:50:38;;;;;;;2.30;1.88;;;15.90;42.70;;;;;;5077693;28;20024;-58
2022/05/05 05:53:03;;;;;;;1.80;1.67;;;15.70;43.10;;;;;;5064555;28;20161;-57
2022/05/05 05:55:29;;;;;;;1.70;1.60;;;15.50;43.40;;;;;;5076732;28;20395;-57
2022/05/05 05:57:55;;;;;;;1.88;1.77;;;15.40;43.60;;;;;;5079827;28;20666;-57
2022/05/05 06:00:20;;;;;;;1.92;1.80;;;15.20;43.60;;;;;;5075164;28;20495;-58
2022/05/05 06:05:38;;;;;;;1.98;1.73;;;15.00;43.90;;;;;;5041931;28;20036;-57
2022/05/05 06:08:04;;;;;;;1.48;1.38;;;14.90;43.90;;;;;;5080819;28;20684;-58
2022/05/05 06:10:33;;;;;;;3.67;2.20;;;14.90;44.20;;;;;;5081671;28;20031;-58
2022/05/05 06:12:59;;;;;;;2.65;1.60;;;14.80;44.10;;;;;;5084546;28;20030;-58
2022/05/05 06:15:25;;;;;;;2.47;1.98;;;14.80;44.50;;;;;;5081163;28;20028;-58
2022/05/05 06:17:51;;;;;;;1.50;1.40;;;14.70;44.70;;;;;;5081026;28;20036;-58
2022/05/05 06:20:17;;;;;;;1.63;1.52;;;14.70;44.80;;;;;;5080860;28;20020;-58
2022/05/05 06:22:43;;;;;;;1.40;1.30;;;14.70;44.80;;;;;;5083091;28;20031;-58
2022/05/05 06:25:11;;;;;;;2.17;1.33;;;14.70;44.70;;;;;;5079835;28;20034;-58
2022/05/05 06:27:38;;;;;;;2.08;1.55;;;14.70;44.90;;;;;;5076781;28;20040;-58
2022/05/05 06:30:10;;;;;;;1.73;1.60;;;14.70;45.00;;;;;;5079669;28;20395;-58
2022/05/05 06:32:36;;;;;;;2.38;1.70;;;14.80;44.40;;;;;;5074971;28;20123;-59
2022/05/05 06:35:02;;;;;;;1.45;1.35;;;14.70;44.20;;;;;;5080841;28;20217;-58
2022/05/05 06:37:27;;;;;;;1.50;1.40;;;14.70;44.00;;;;;;5080836;28;20384;-59
2022/05/05 06:39:53;;;;;;;1.58;1.48;;;14.70;43.90;;;;;;5064275;28;20028;-58
2022/05/05 06:42:19;;;;;;;1.50;1.40;;;14.70;44.00;;;;;;5079490;28;20035;-57
2022/05/05 06:44:45;;;;;;;1.10;1.10;;;14.80;44.10;;;;;;5082028;28;20396;-58
2022/05/05 06:47:11;;;;;;;1.38;1.27;;;14.70;44.00;;;;;;5083148;28;20035;-58
2022/05/05 06:49:36;;;;;;;1.80;1.70;;;14.80;43.90;;;;;;5078540;28;20025;-58
2022/05/05 06:52:03;;;;;;;1.48;1.38;;;14.80;43.80;;;;;;5075044;28;20028;-58
2022/05/05 06:54:29;;;;;;;1.60;1.50;;;14.80;44.20;;;;;;5078120;28;20136;-58
2022/05/05 06:56:55;;;;;;;1.70;1.30;;;14.80;44.30;;;;;;5074307;28;20847;-57
2022/05/05 06:59:21;;;;;;;1.70;1.60;;;14.90;44.20;;;;;;5077271;28;20031;-58
2022/05/05 07:01:53;;;;;;;1.70;1.50;;;14.90;44.00;;;;;;5074352;28;20027;-58
2022/05/05 07:07:13;;;;;;;1.02;1.02;;;14.90;44.10;;;;;;5077032;28;20082;-56
2022/05/05 07:12:28;;;;;;;2.45;1.55;;;14.90;43.60;;;;;;5068706;28;20050;-55
2022/05/05 07:14:54;;;;;;;1.58;1.48;;;14.80;43.30;;;;;;5082082;28;20171;-58
2022/05/05 07:17:21;;;;;;;2.50;1.75;;;14.80;43.90;;;;;;5079071;28;20119;-57
2022/05/05 07:19:47;;;;;;;3.22;1.60;;;14.80;43.60;;;;;;5079613;28;20145;-57
2022/05/05 07:22:12;;;;;;;2.05;1.52;;;14.80;43.70;;;;;;5079270;28;20089;-58
2022/05/05 07:24:38;;;;;;;2.38;1.73;;;14.80;43.60;;;;;;5083824;28;20555;-58
2022/05/05 07:27:05;;;;;;;1.73;1.60;;;14.80;43.40;;;;;;5081235;28;20111;-57
2022/05/05 07:29:31;;;;;;;1.60;1.50;;;14.90;43.60;;;;;;5079588;28;20517;-58
2022/05/05 07:31:57;;;;;;;2.25;1.60;;;14.90;43.30;;;;;;5067099;28;20044;-59
2022/05/05 07:34:23;;;;;;;1.58;1.48;;;14.90;43.30;;;;;;5076863;28;20034;-58
2022/05/05 07:36:49;;;;;;;1.67;1.52;;;14.90;43.10;;;;;;5077389;28;20499;-59
2022/05/05 07:39:15;;;;;;;1.73;1.50;;;14.90;43.40;;;;;;5078157;28;20047;-58
2022/05/05 07:41:41;;;;;;;3.08;1.65;;;15.00;43.20;;;;;;5062200;28;20016;-59
2022/05/05 07:44:08;;;;;;;1.40;1.30;;;15.00;43.00;;;;;;5077593;28;20044;-59
2022/05/05 07:46:34;;;;;;;1.75;1.52;;;15.00;42.80;;;;;;5074411;28;20028;-59
2022/05/05 07:49:04;;;;;;;1.90;1.70;;;15.00;42.60;;;;;;5075734;28;20024;-58
2022/05/05 07:51:31;;;;;;;1.87;1.43;;;15.00;42.20;;;;;;5073863;28;20050;-58
2022/05/05 07:56:43;;;;;;;1.92;1.65;;;15.00;42.70;;;;;;5060842;28;20076;-57
2022/05/05 07:59:09;;;;;;;2.13;1.60;;;15.00;42.60;;;;;;5063779;28;20042;-57
2022/05/05 08:01:35;;;;;;;1.67;1.58;;;15.00;42.20;;;;;;5067482;28;20033;-58
2022/05/05 08:04:00;;;;;;;1.50;1.40;;;15.00;42.20;;;;;;5064653;28;20055;-57
2022/05/05 08:06:26;;;;;;;1.40;1.30;;;14.90;42.10;;;;;;5071765;28;20805;-58
2022/05/05 08:08:52;;;;;;;1.55;1.45;;;14.90;41.90;;;;;;5064868;28;20036;-59
2022/05/05 08:11:18;;;;;;;1.58;1.48;;;14.90;41.90;;;;;;5065287;28;20407;-59
2022/05/05 08:13:44;;;;;;;1.88;1.60;;;14.90;41.80;;;;;;5060751;28;20032;-59
2022/05/05 08:16:10;;;;;;;1.55;1.40;;;14.90;42.10;;;;;;5067201;28;20032;-58
2022/05/05 08:18:38;;;;;;;1.75;1.65;;;14.90;41.90;;;;;;5072167;28;20060;-59
2022/05/05 08:21:05;;;;;;;1.52;1.42;;;14.90;41.60;;;;;;5071385;28;20032;-59
2022/05/05 08:23:31;;;;;;;1.95;1.52;;;14.90;41.70;;;;;;5075647;28;20077;-58
2022/05/05 08:28:41;;;;;;;2.60;1.60;;;14.80;41.40;;;;;;5070467;28;20139;-58
2022/05/05 08:31:10;;;;;;;1.60;1.50;;;14.80;41.30;;;;;;5065335;28;20059;-58
2022/05/05 08:33:36;;;;;;;2.00;1.58;;;14.80;41.10;;;;;;5066508;28;20536;-58
2022/05/05 08:36:02;;;;;;;1.35;1.15;;;14.80;41.60;;;;;;5073515;28;20074;-58
2022/05/05 08:38:28;;;;;;;1.70;1.42;;;14.80;41.70;;;;;;5073203;28;20032;-58
2022/05/05 08:40:54;;;;;;;1.70;1.60;;;14.80;41.40;;;;;;5065911;28;20090;-60
2022/05/05 08:43:20;;;;;;;1.80;1.70;;;14.80;41.30;;;;;;5067950;28;23057;-61
2022/05/05 08:45:48;;;;;;;1.58;1.40;;;14.70;41.20;;;;;;5063118;28;20031;-58
2022/05/05 08:48:14;;;;;;;1.58;1.48;;;14.70;41.00;;;;;;5062502;28;20574;-57
2022/05/05 08:50:44;;;;;;;2.33;2.05;;;14.70;40.90;;;;;;5063834;28;20055;-58
2022/05/05 08:53:15;;;;;;;1.87;1.77;;;14.70;41.10;;;;;;5058378;28;20131;-58
2022/05/05 08:55:43;;;;;;;1.63;1.50;;;14.60;41.50;;;;;;5057755;28;20032;-56
2022/05/05 08:58:09;;;;;;;1.73;1.30;;;14.60;41.60;;;;;;5061447;28;20776;-57
2022/05/05 09:00:36;;;;;;;1.60;1.50;;;14.60;41.60;;;;;;5058724;28;20039;-57
2022/05/05 09:03:04;;;;;;;1.65;1.55;;;14.60;41.40;;;;;;5060012;28;20032;-57
2022/05/05 09:06:01;;;;;;;2.00;1.80;;;14.60;41.40;;;;;;5071495;28;20035;-56
2022/05/05 09:08:29;;;;;;;1.27;1.25;;;14.60;41.40;;;;;;5046741;28;20033;-56
2022/05/05 09:10:57;;;;;;;2.17;1.60;;;14.50;41.20;;;;;;5061396;28;20028;-56
2022/05/05 09:13:31;;;;;;;2.28;1.60;;;14.60;41.20;;;;;;5059795;28;20040;-58
2022/05/05 09:15:57;;;;;;;1.50;1.40;;;14.50;41.20;;;;;;5065195;28;20032;-57
2022/05/05 09:18:28;;;;;;;1.88;1.60;;;14.50;41.40;;;;;;5066679;28;20055;-56
2022/05/05 09:20:56;;;;;;;1.70;1.60;;;14.40;41.50;;;;;;5069513;28;20027;-58
2022/05/05 09:23:32;;;;;;;1.65;1.55;;;14.50;41.50;;;;;;5066186;28;20161;-58
2022/05/05 09:26:03;;;;;;;1.40;1.30;;;14.50;41.00;;;;;;5065304;28;20059;-57
2022/05/05 09:28:31;;;;;;;1.35;1.35;;;14.50;40.90;;;;;;5066085;28;20135;-58
2022/05/05 09:31:04;;;;;;;2.53;1.60;;;14.50;40.90;;;;;;5058326;28;20148;-57
2022/05/05 09:33:41;;;;;;;1.55;1.45;;;14.40;40.80;;;;;;5059583;28;20038;-58
2022/05/05 09:36:09;;;;;;;1.88;1.48;;;14.40;40.90;;;;;;5058468;28;20165;-58
2022/05/05 09:39:00;;;;;;;1.80;1.35;;;14.40;41.10;;;;;;5063787;28;20032;-57
2022/05/05 09:41:28;;;;;;;1.98;1.75;;;14.50;41.30;;;;;;5064999;28;20027;-58
2022/05/05 09:44:24;;;;;;;1.17;1.13;;;14.50;41.30;;;;;;5063942;28;20043;-58
2022/05/05 09:46:49;;;;;;;2.72;1.83;;;14.50;41.20;;;;;;5066913;28;20039;-59
2022/05/05 09:49:20;;;;;;;1.63;1.52;;;14.50;41.20;;;;;;5064833;28;20028;-56
2022/05/05 09:57:40;;;;;;;1.88;1.73;;;14.50;40.80;;;;;;5068105;28;20103;-57
2022/05/05 10:00:23;;;;;;;2.60;2.13;;;14.50;41.00;;;;;;5072832;28;20020;-58
2022/05/05 10:05:42;;;;;;;1.67;1.48;;;14.50;41.10;;;;;;5058154;28;20047;-58
2022/05/05 10:08:09;;;;;;;1.10;1.10;;;14.50;41.30;;;;;;5054925;28;20529;-58
2022/05/05 10:10:35;;;;;;;1.83;1.73;;;14.50;41.50;;;;;;5059227;28;20161;-57
2022/05/05 10:13:03;;;;;;;1.67;1.40;;;14.50;41.40;;;;;;5058809;28;20028;-58
2022/05/05 10:15:29;;;;;;;1.60;1.38;;;14.60;41.30;;;;;;5057436;28;20563;-57
2022/05/05 10:17:55;;;;;;;2.03;1.80;;;14.60;40.80;;;;;;5068471;28;20040;-57
2022/05/05 10:20:21;;;;;;;2.13;1.70;;;14.60;40.60;;;;;;5061857;28;20119;-57
2022/05/05 10:23:05;;;;;;;1.33;1.23;;;14.60;40.80;;;;;;5056143;28;20028;-57
2022/05/05 10:25:32;;;;;;;1.35;1.25;;;14.70;40.60;;;;;;5064725;28;20032;-57
2022/05/05 10:27:59;;;;;;;1.50;1.35;;;14.70;41.00;;;;;;5068749;28;20573;-57
2022/05/05 10:30:35;;;;;;;1.55;1.45;;;14.70;40.50;;;;;;5069024;28;20020;-58
2022/05/05 10:33:08;;;;;;;1.80;1.70;;;14.70;41.20;;;;;;5063589;28;21607;-58
2022/05/05 10:35:47;;;;;;;1.27;1.20;;;14.70;40.30;;;;;;5063740;28;20032;-58
2022/05/05 10:38:42;;;;;;;1.70;1.60;;;14.70;40.40;;;;;;5068908;28;20028;-58
2022/05/05 10:41:39;;;;;;;1.60;1.50;;;14.70;40.40;;;;;;5067654;28;20055;-58
2022/05/05 10:44:20;;;;;;;2.75;1.55;;;14.70;40.60;;;;;;5066396;28;20035;-58
2022/05/05 10:47:02;;;;;;;1.92;1.38;;;14.70;41.00;;;;;;5065019;28;20028;-58
2022/05/05 10:49:30;;;;;;;2.13;1.63;;;14.70;41.10;;;;;;5063999;28;20070;-58
2022/05/05 10:52:08;;;;;;;1.85;1.63;;;14.80;41.60;;;;;;5065963;28;20108;-58
2022/05/05 10:54:34;;;;;;;1.45;1.27;;;14.80;41.10;;;;;;5069019;28;20048;-58
2022/05/05 10:57:24;;;;;;;2.92;1.63;;;14.80;41.40;;;;;;5071160;28;20053;-59
2022/05/05 11:00:13;;;;;;;1.33;1.23;;;14.80;41.00;;;;;;5058559;28;20101;-58
2022/05/05 11:03:01;;;;;;;1.35;1.25;;;14.80;40.90;;;;;;5062969;28;20080;-59
2022/05/05 11:05:28;;;;;;;1.42;1.33;;;14.80;40.20;;;;;;5069135;28;20082;-59
2022/05/05 11:08:17;;;;;;;1.25;1.10;;;14.80;40.30;;;;;;5068401;28;20028;-59
2022/05/05 11:13:41;;;;;;;1.40;1.30;;;14.90;40.20;;;;;;5064629;28;20490;-59
2022/05/05 11:22:17;;;;;;;1.80;1.20;;;14.90;40.20;;;;;;5067842;28;20085;-59
2022/05/05 11:24:47;;;;;;;2.10;1.90;;;14.90;40.10;;;;;;5061567;28;20043;-58
2022/05/05 11:27:18;;;;;;;1.70;1.60;;;14.90;39.90;;;;;;5053760;28;20770;-59
2022/05/05 11:29:54;;;;;;;1.30;1.30;;;14.90;39.70;;;;;;5060584;28;20819;-59
2022/05/05 11:32:21;;;;;;;1.50;1.40;;;15.00;39.70;;;;;;5066792;28;20055;-58
2022/05/05 11:34:48;;;;;;;1.55;1.45;;;15.00;39.90;;;;;;5066713;28;20107;-58
2022/05/05 11:37:14;;;;;;;1.40;1.30;;;15.00;40.10;;;;;;5058709;28;20162;-59
2022/05/05 11:39:40;;;;;;;1.77;1.58;;;15.00;39.80;;;;;;5064633;28;20031;-58
2022/05/05 11:42:10;;;;;;;1.42;1.33;;;15.00;40.50;;;;;;5064026;28;20036;-58
2022/05/05 11:44:41;;;;;;;1.42;1.33;;;15.00;41.10;;;;;;5065739;28;20040;-57
2022/05/05 11:47:18;;;;;;;2.05;1.35;;;15.10;40.70;;;;;;5061175;28;20048;-57
2022/05/05 11:49:48;;;;;;;2.28;1.45;;;15.10;40.30;;;;;;5067769;28;20044;-57
2022/05/05 11:52:22;;;;;;;1.30;1.30;;;15.10;40.20;;;;;;5068874;28;20541;-58
2022/05/05 11:54:50;;;;;;;1.63;1.50;;;15.10;40.00;;;;;;5067592;28;20822;-58
2022/05/05 11:57:37;;;;;;;1.52;1.42;;;15.10;39.70;;;;;;5068423;28;20024;-58
2022/05/05 12:02:49;;;;;;;3.00;1.45;;;15.20;39.20;;;;;;5061409;28;20039;-59
2022/05/05 12:05:15;;;;;;;1.50;1.40;;;15.10;39.40;;;;;;5060926;28;20036;-58
2022/05/05 12:07:44;;;;;;;4.97;2.10;;;15.20;39.50;;;;;;5053853;28;20051;-60
2022/05/05 12:10:13;;;;;;;2.67;1.83;;;15.20;39.50;;;;;;5065908;28;20028;-58
2022/05/05 12:12:43;;;;;;;1.23;1.13;;;15.20;39.40;;;;;;5059939;28;20020;-58
2022/05/05 12:15:10;;;;;;;1.20;1.10;;;15.20;39.70;;;;;;5054582;28;20024;-58
2022/05/05 12:17:39;;;;;;;1.60;1.40;;;15.20;39.80;;;;;;5061072;28;20048;-58
2022/05/05 12:20:07;;;;;;;2.75;1.63;;;15.20;39.70;;;;;;5064392;28;20051;-58
2022/05/05 12:22:41;;;;;;;1.75;1.65;;;15.20;39.30;;;;;;5069012;28;20089;-58
2022/05/05 12:25:13;;;;;;;1.38;1.23;;;15.20;39.30;;;;;;5062625;28;20024;-58
2022/05/05 12:27:40;;;;;;;1.73;1.60;;;15.20;39.30;;;;;;5053409;28;20032;-59
2022/05/05 12:30:06;;;;;;;1.38;1.27;;;15.30;39.30;;;;;;5040911;28;20042;-59
2022/05/05 12:32:32;;;;;;;1.48;1.38;;;15.30;39.40;;;;;;5067334;28;20040;-59
2022/05/05 12:35:10;;;;;;;1.35;1.25;;;15.30;39.50;;;;;;5062510;28;20683;-59
2022/05/05 12:38:22;;;;;;;1.10;1.10;;;15.30;39.80;;;;;;5060744;28;20032;-59
2022/05/05 12:41:28;;;;;;;1.20;1.10;;;15.30;39.80;;;;;;5054485;28;20028;-59
2022/05/05 12:44:06;;;;;;;1.50;1.30;;;15.30;39.80;;;;;;5066197;28;20040;-59
2022/05/05 12:46:31;;;;;;;1.27;1.23;;;15.40;39.70;;;;;;5067454;28;20027;-59
2022/05/05 12:48:57;;;;;;;1.90;1.63;;;15.40;39.80;;;;;;5067228;28;20445;-59
2022/05/05 12:51:30;;;;;;;2.42;1.50;;;15.40;39.30;;;;;;5071313;28;20060;-57
2022/05/05 12:59:36;;;;;;;1.58;1.30;;;15.40;39.50;;;;;;5069818;28;20750;-58
2022/05/05 13:02:04;;;;;;;1.95;1.15;;;15.40;39.00;;;;;;5058618;28;20027;-58
2022/05/05 13:04:30;;;;;;;1.63;1.50;;;15.40;39.10;;;;;;5063252;28;20055;-57
2022/05/05 13:06:56;;;;;;;1.48;1.40;;;15.40;39.40;;;;;;5071096;28;20131;-59
2022/05/05 13:09:22;;;;;;;1.75;1.52;;;15.50;39.80;;;;;;5049102;28;20514;-56
2022/05/05 13:11:52;;;;;;;2.58;1.58;;;15.50;39.90;;;;;;5072028;28;20043;-57
2022/05/05 13:14:20;;;;;;;1.50;1.40;;;15.50;39.80;;;;;;5072865;28;20036;-58
2022/05/05 13:16:47;;;;;;;1.73;1.63;;;15.50;39.30;;;;;;5071898;28;20031;-58
2022/05/05 13:19:13;;;;;;;1.80;1.70;;;15.50;39.50;;;;;;5061945;28;20052;-58
2022/05/05 13:21:39;;;;;;;1.50;1.40;;;15.50;39.80;;;;;;5063456;28;20092;-58
2022/05/05 13:24:06;;;;;;;1.50;1.40;;;15.50;39.30;;;;;;5070223;28;20036;-57
2022/05/05 13:26:32;;;;;;;1.67;1.23;;;15.60;39.40;;;;;;5074558;28;20073;-57
2022/05/05 13:28:58;;;;;;;1.02;0.98;;;15.60;39.60;;;;;;5073955;28;20418;-59
2022/05/05 13:31:24;;;;;;;1.05;1.05;;;15.60;39.70;;;;;;5064143;28;20089;-58
2022/05/05 13:33:49;;;;;;;1.52;1.20;;;15.60;40.00;;;;;;5060049;28;20695;-58
2022/05/05 13:36:15;;;;;;;1.10;1.00;;;15.60;40.20;;;;;;5065117;28;20050;-59
2022/05/05 13:38:41;;;;;;;1.73;1.63;;;15.60;40.20;;;;;;5062374;28;20059;-59
2022/05/05 13:41:07;;;;;;;1.50;1.25;;;15.60;40.00;;;;;;5065199;28;21485;-58
2022/05/05 13:43:33;;;;;;;1.40;1.30;;;15.60;39.80;;;;;;5058746;28;20046;-58
2022/05/05 13:45:58;;;;;;;2.30;1.40;;;15.60;39.40;;;;;;5064445;28;20036;-59